Time;durP1;ratioP1;P1;durP2;ratioP2;P2;SDS_P1;SDS_P2;PMS_P1;PMS_P2;Temp;Humidity;BMP_temperature;BMP_pressure;BME280_temperature;BME280_humidity;BME280_pressure;Samples;Min_cycle;Max_cycle;Signal;HPM_P1;HPM_P2
2021/05/14 00:00:27;;;;;;;2.17;1.10;;;12.90;88.50;;;;;;5083276;28;20044;-70
2021/05/14 00:02:54;;;;;;;1.52;1.05;;;13.00;87.90;;;;;;5080106;28;20066;-69
2021/05/14 00:05:22;;;;;;;1.63;1.05;;;13.00;88.00;;;;;;5080596;28;20083;-70
2021/05/14 00:07:49;;;;;;;2.50;1.13;;;13.00;88.00;;;;;;5081882;28;20052;-70
2021/05/14 00:10:18;;;;;;;1.58;0.90;;;12.90;88.50;;;;;;5082356;28;20074;-69
2021/05/14 00:12:49;;;;;;;1.90;0.93;;;13.10;87.40;;;;;;5079796;28;20079;-70
2021/05/14 00:15:17;;;;;;;1.55;1.00;;;13.00;87.10;;;;;;5081860;28;20044;-70
2021/05/14 00:17:44;;;;;;;1.70;1.10;;;13.00;87.70;;;;;;5083608;28;20090;-69
2021/05/14 00:20:12;;;;;;;1.15;1.05;;;12.80;87.80;;;;;;5084191;28;20044;-69
2021/05/14 00:22:39;;;;;;;4.90;2.08;;;12.70;88.70;;;;;;5087310;28;20045;-69
2021/05/14 00:25:06;;;;;;;4.90;2.17;;;12.70;88.80;;;;;;5082419;28;20082;-69
2021/05/14 00:27:33;;;;;;;3.30;1.38;;;12.60;88.60;;;;;;5078668;28;20457;-70
2021/05/14 00:30:01;;;;;;;2.75;1.40;;;12.50;88.90;;;;;;5075108;28;20041;-70
2021/05/14 00:32:27;;;;;;;3.00;1.52;;;12.50;87.70;;;;;;5082621;28;20055;-71
2021/05/14 00:34:54;;;;;;;2.03;1.20;;;12.30;87.50;;;;;;5078201;28;20999;-70
2021/05/14 00:37:21;;;;;;;4.82;1.70;;;12.40;87.20;;;;;;5090542;28;20437;-70
2021/05/14 00:39:48;;;;;;;5.43;1.60;;;12.40;87.30;;;;;;5082693;28;20071;-70
2021/05/14 00:42:14;;;;;;;5.32;1.60;;;12.30;87.60;;;;;;5080488;28;20044;-70
2021/05/14 00:44:46;;;;;;;2.25;1.70;;;12.30;87.40;;;;;;5084336;28;20078;-70
2021/05/14 00:47:15;;;;;;;2.60;1.40;;;12.30;87.10;;;;;;5090339;28;20048;-70
2021/05/14 00:49:44;;;;;;;4.72;1.55;;;12.40;86.80;;;;;;5081605;28;20132;-69
2021/05/14 00:52:16;;;;;;;5.68;1.55;;;12.40;86.90;;;;;;5083612;28;20060;-69
2021/05/14 00:54:45;;;;;;;4.82;2.08;;;12.50;87.10;;;;;;5082332;28;20044;-70
2021/05/14 00:57:15;;;;;;;2.58;1.30;;;12.50;87.30;;;;;;5082615;28;20052;-70
2021/05/14 00:59:47;;;;;;;2.25;1.50;;;12.60;86.50;;;;;;5081475;28;20079;-70
2021/05/14 01:02:15;;;;;;;3.58;1.00;;;12.60;87.00;;;;;;5088859;28;20506;-70
2021/05/14 01:04:43;;;;;;;1.30;1.00;;;12.40;87.70;;;;;;5081694;28;20068;-70
2021/05/14 01:07:11;;;;;;;2.20;1.23;;;12.20;88.80;;;;;;5078182;28;20132;-70
2021/05/14 01:09:42;;;;;;;1.30;0.95;;;12.10;90.10;;;;;;5076030;28;20529;-70
2021/05/14 01:12:10;;;;;;;1.65;1.20;;;11.90;90.20;;;;;;5086465;28;20463;-70
2021/05/14 01:14:40;;;;;;;2.90;1.77;;;12.00;90.60;;;;;;5083950;28;20036;-70
2021/05/14 01:17:08;;;;;;;1.75;1.63;;;12.20;90.10;;;;;;5079471;28;20066;-70
2021/05/14 01:19:35;;;;;;;4.60;1.17;;;12.30;89.50;;;;;;5084665;28;20113;-70
2021/05/14 01:22:03;;;;;;;1.73;1.13;;;12.30;89.70;;;;;;5080662;28;20075;-69
2021/05/14 01:24:31;;;;;;;1.80;1.10;;;12.20;89.40;;;;;;5090016;28;20056;-69
2021/05/14 01:27:00;;;;;;;1.63;1.10;;;12.30;89.10;;;;;;5085018;28;20127;-69
2021/05/14 01:29:27;;;;;;;1.92;1.00;;;12.20;88.80;;;;;;5074326;28;20132;-69
2021/05/14 01:31:53;;;;;;;2.63;1.13;;;12.20;89.00;;;;;;5079212;28;20105;-70
2021/05/14 01:34:22;;;;;;;2.83;1.20;;;12.30;89.10;;;;;;5077650;28;20060;-70
2021/05/14 01:36:49;;;;;;;2.97;1.30;;;12.30;88.50;;;;;;5087470;28;20403;-69
2021/05/14 01:39:18;;;;;;;4.43;1.20;;;12.40;87.80;;;;;;5084549;28;20068;-70
2021/05/14 01:41:44;;;;;;;2.45;1.30;;;12.30;88.20;;;;;;5086002;28;20082;-66
2021/05/14 01:44:11;;;;;;;2.50;1.35;;;12.30;88.80;;;;;;5082180;28;20479;-68
2021/05/14 01:46:38;;;;;;;2.30;1.15;;;12.30;88.30;;;;;;5080190;28;20040;-67
2021/05/14 01:49:05;;;;;;;2.10;1.10;;;12.20;88.30;;;;;;5082453;28;20049;-66
2021/05/14 01:51:33;;;;;;;2.50;0.82;;;12.30;88.40;;;;;;5082727;28;20531;-66
2021/05/14 01:54:00;;;;;;;1.55;1.10;;;12.30;87.00;;;;;;5077176;28;20101;-66
2021/05/14 01:56:27;;;;;;;1.40;1.00;;;12.30;87.90;;;;;;5087700;28;20056;-67
2021/05/14 01:58:54;;;;;;;2.33;1.30;;;12.30;87.30;;;;;;5084478;28;20047;-66
2021/05/14 02:01:21;;;;;;;1.60;0.82;;;12.20;88.90;;;;;;5082086;28;20053;-65
2021/05/14 02:03:49;;;;;;;1.90;1.02;;;12.20;88.30;;;;;;5077991;28;20075;-66
2021/05/14 02:06:15;;;;;;;0.93;0.82;;;12.20;88.30;;;;;;5082059;28;20482;-67
2021/05/14 02:08:42;;;;;;;2.55;0.93;;;12.20;88.20;;;;;;5080183;28;20044;-65
2021/05/14 02:11:10;;;;;;;2.30;0.95;;;12.30;87.50;;;;;;5079656;28;20041;-66
2021/05/14 02:13:41;;;;;;;2.53;1.00;;;12.20;87.80;;;;;;5080499;28;20188;-66
2021/05/14 02:16:09;;;;;;;3.78;0.95;;;12.30;87.50;;;;;;5086918;28;20041;-69
2021/05/14 02:18:38;;;;;;;1.40;1.08;;;12.20;88.20;;;;;;5083578;28;20044;-69
2021/05/14 02:21:06;;;;;;;3.42;1.30;;;12.30;89.20;;;;;;5077300;28;20592;-69
2021/05/14 02:23:33;;;;;;;1.58;1.10;;;12.40;89.00;;;;;;5077449;28;20032;-69
2021/05/14 02:25:59;;;;;;;1.90;1.40;;;12.30;90.20;;;;;;5086898;28;20052;-69
2021/05/14 02:28:26;;;;;;;1.52;1.25;;;12.10;90.80;;;;;;5085843;28;20565;-69
2021/05/14 02:30:53;;;;;;;1.13;1.00;;;12.10;90.80;;;;;;5076790;28;20565;-70
2021/05/14 02:33:20;;;;;;;1.83;1.48;;;12.10;91.50;;;;;;5077561;28;20055;-69
2021/05/14 02:35:47;;;;;;;3.42;1.80;;;12.30;91.50;;;;;;5078428;28;20095;-69
2021/05/14 02:38:14;;;;;;;3.40;2.00;;;12.20;91.80;;;;;;5082439;28;20121;-70
2021/05/14 02:40:41;;;;;;;2.72;2.08;;;12.10;92.30;;;;;;5081086;28;20086;-69
2021/05/14 02:43:08;;;;;;;4.30;1.98;;;11.90;92.70;;;;;;5080940;28;20072;-69
2021/05/14 02:45:35;;;;;;;3.30;2.05;;;12.10;92.90;;;;;;5083547;28;20086;-69
2021/05/14 02:48:02;;;;;;;3.17;2.30;;;12.20;92.50;;;;;;5074927;28;20097;-69
2021/05/14 02:50:29;;;;;;;4.72;2.53;;;12.00;92.80;;;;;;5081610;28;20064;-69
2021/05/14 02:52:56;;;;;;;3.65;2.40;;;12.00;92.90;;;;;;5080799;28;20124;-69
2021/05/14 02:55:22;;;;;;;4.15;2.13;;;11.90;93.20;;;;;;5084664;28;20130;-69
2021/05/14 02:57:51;;;;;;;4.32;2.30;;;11.90;93.50;;;;;;5084069;28;20477;-69
2021/05/14 03:00:19;;;;;;;6.18;2.40;;;11.90;93.80;;;;;;5077406;28;20135;-69
2021/05/14 03:02:46;;;;;;;3.22;2.13;;;11.80;94.00;;;;;;5071514;28;20048;-69
2021/05/14 03:05:13;;;;;;;3.05;2.13;;;11.90;94.10;;;;;;5085226;28;20384;-69
2021/05/14 03:07:40;;;;;;;3.65;2.35;;;11.90;94.40;;;;;;5081518;28;20097;-69
2021/05/14 03:10:07;;;;;;;2.60;2.00;;;11.90;94.30;;;;;;5078684;28;20052;-69
2021/05/14 03:12:34;;;;;;;4.03;1.80;;;11.90;94.30;;;;;;5082984;28;20109;-68
2021/05/14 03:15:02;;;;;;;3.05;1.92;;;11.80;94.60;;;;;;5072615;28;20036;-69
2021/05/14 03:17:28;;;;;;;2.88;2.00;;;11.80;95.00;;;;;;5078225;28;20051;-69
2021/05/14 03:19:55;;;;;;;2.80;2.05;;;11.90;95.30;;;;;;5080773;28;20305;-71
2021/05/14 03:22:22;;;;;;;4.25;1.92;;;11.80;95.50;;;;;;5079985;28;20462;-69
2021/05/14 03:24:49;;;;;;;3.13;1.95;;;11.80;96.10;;;;;;5081772;28;20158;-69
2021/05/14 03:27:16;;;;;;;3.28;2.00;;;11.80;95.90;;;;;;5078439;28;20044;-69
2021/05/14 03:29:43;;;;;;;2.75;2.00;;;11.80;96.30;;;;;;5078506;28;20064;-70
2021/05/14 03:32:09;;;;;;;5.93;2.10;;;11.70;96.40;;;;;;5079904;28;20079;-70
2021/05/14 03:34:37;;;;;;;3.35;2.53;;;11.70;97.20;;;;;;5080564;28;20380;-69
2021/05/14 03:37:05;;;;;;;4.25;2.53;;;11.60;97.10;;;;;;5083145;28;20044;-70
2021/05/14 03:39:32;;;;;;;4.45;2.33;;;11.60;98.00;;;;;;5080263;28;20052;-69
2021/05/14 03:44:44;;;;;;;3.17;2.58;;;11.60;98.40;;;;;;5078030;28;20099;-70
2021/05/14 03:47:11;;;;;;;3.83;2.55;;;11.70;98.70;;;;;;5083111;28;20653;-70
2021/05/14 03:49:39;;;;;;;6.07;2.72;;;11.70;98.70;;;;;;5073381;28;20113;-69
2021/05/14 03:52:07;;;;;;;4.30;2.85;;;11.60;99.10;;;;;;5082485;28;20474;-70
2021/05/14 03:54:34;;;;;;;4.22;2.78;;;11.50;99.50;;;;;;5078002;28;20048;-69
2021/05/14 03:57:02;;;;;;;7.10;3.08;;;11.50;99.90;;;;;;5073761;28;20197;-69
2021/05/14 03:59:29;;;;;;;4.95;3.05;;;11.60;99.90;;;;;;5078374;28;20072;-70
2021/05/14 04:01:56;;;;;;;3.40;2.60;;;11.60;99.90;;;;;;5079822;28;20101;-70
2021/05/14 04:04:24;;;;;;;6.80;3.00;;;11.60;99.70;;;;;;5083822;28;20041;-66
2021/05/14 04:06:52;;;;;;;5.53;2.83;;;11.50;99.90;;;;;;5079166;28;20068;-67
2021/05/14 04:09:31;;;;;;;4.03;2.60;;;11.50;99.90;;;;;;5077322;28;20067;-66
2021/05/14 04:14:33;;;;;;;3.45;2.38;;;11.60;99.90;;;;;;5083818;28;20048;-67
2021/05/14 04:17:10;;;;;;;3.53;2.50;;;11.70;99.90;;;;;;5093967;28;20048;-67
2021/05/14 04:19:36;;;;;;;6.25;2.47;;;11.80;99.70;;;;;;5087571;28;20075;-67
2021/05/14 04:22:05;;;;;;;4.88;2.30;;;11.80;99.40;;;;;;5077942;28;20071;-67
2021/05/14 04:24:32;;;;;;;4.32;2.53;;;11.90;99.30;;;;;;5078890;28;20140;-67
2021/05/14 04:26:59;;;;;;;4.20;2.45;;;12.00;98.90;;;;;;5085756;28;20426;-68
2021/05/14 04:29:26;;;;;;;3.65;2.50;;;11.90;98.90;;;;;;5080624;28;20101;-67
2021/05/14 04:31:56;;;;;;;5.60;2.75;;;11.80;99.10;;;;;;5082493;28;20048;-68
2021/05/14 04:34:25;;;;;;;3.00;2.20;;;11.60;99.90;;;;;;5081837;28;20067;-68
2021/05/14 04:36:59;;;;;;;2.83;2.15;;;11.70;99.90;;;;;;5081160;28;20155;-67
2021/05/14 04:39:26;;;;;;;3.42;2.40;;;11.80;99.50;;;;;;5089163;28;20485;-68
2021/05/14 04:41:59;;;;;;;3.63;2.30;;;11.80;99.30;;;;;;5086898;28;20127;-67
2021/05/14 04:44:27;;;;;;;2.85;1.90;;;12.00;98.80;;;;;;5077396;28;20048;-66
2021/05/14 04:46:54;;;;;;;4.10;2.45;;;12.20;98.30;;;;;;5088028;28;20479;-68
2021/05/14 04:49:23;;;;;;;5.82;2.65;;;12.30;97.80;;;;;;5082039;28;20479;-66
2021/05/14 04:51:51;;;;;;;4.15;2.50;;;12.30;97.20;;;;;;5075946;28;20551;-68
2021/05/14 04:54:20;;;;;;;3.20;1.75;;;12.20;97.40;;;;;;5080965;28;20056;-67
2021/05/14 04:56:47;;;;;;;4.13;1.92;;;12.30;96.80;;;;;;5078859;28;20048;-68
2021/05/14 04:59:14;;;;;;;2.30;1.60;;;12.10;97.00;;;;;;5076806;28;20054;-69
2021/05/14 05:01:41;;;;;;;5.25;1.75;;;12.10;97.30;;;;;;5082550;28;20591;-66
2021/05/14 05:04:09;;;;;;;6.38;1.60;;;12.10;96.30;;;;;;5078118;28;20048;-66
2021/05/14 05:06:37;;;;;;;3.70;1.70;;;12.10;96.00;;;;;;5080445;28;20094;-66
2021/05/14 05:09:04;;;;;;;2.60;1.25;;;12.30;96.20;;;;;;5083277;28;20044;-67
2021/05/14 05:11:32;;;;;;;2.42;1.27;;;12.50;94.80;;;;;;5077883;28;20040;-68
2021/05/14 05:14:02;;;;;;;3.22;1.00;;;12.70;94.30;;;;;;5078817;28;20052;-68
2021/05/14 05:16:29;;;;;;;1.55;1.45;;;12.90;93.50;;;;;;5080674;28;20082;-67
2021/05/14 05:18:56;;;;;;;1.58;1.10;;;14.20;90.00;;;;;;5076595;28;20098;-66
2021/05/14 05:21:22;;;;;;;2.80;0.90;;;13.20;90.10;;;;;;5087293;28;20054;-66
2021/05/14 05:23:49;;;;;;;2.38;0.98;;;12.90;91.70;;;;;;5082557;28;20040;-67
2021/05/14 05:26:16;;;;;;;2.97;0.90;;;13.10;91.50;;;;;;5080016;28;20044;-70
2021/05/14 05:28:43;;;;;;;2.08;1.25;;;12.70;91.10;;;;;;5084381;28;20415;-67
2021/05/14 05:31:10;;;;;;;2.80;1.52;;;12.70;92.20;;;;;;5081009;28;20076;-68
2021/05/14 05:33:37;;;;;;;2.92;1.10;;;12.30;92.90;;;;;;5087532;28;20051;-66
2021/05/14 05:36:04;;;;;;;2.08;1.13;;;12.70;92.60;;;;;;5083191;28;20067;-68
2021/05/14 05:38:33;;;;;;;1.00;0.90;;;12.80;92.20;;;;;;5082623;28;20048;-66
2021/05/14 05:41:00;;;;;;;1.98;1.20;;;12.80;92.30;;;;;;5076756;28;20052;-67
2021/05/14 05:43:27;;;;;;;4.03;1.23;;;13.10;91.70;;;;;;5079789;28;20491;-68
2021/05/14 05:45:54;;;;;;;2.63;0.95;;;13.40;90.40;;;;;;5080651;28;20040;-68
2021/05/14 05:48:21;;;;;;;1.83;1.10;;;12.70;91.10;;;;;;5083968;28;20037;-68
2021/05/14 05:50:50;;;;;;;4.22;1.20;;;12.80;91.80;;;;;;5081691;28;20036;-68
2021/05/14 05:53:17;;;;;;;2.72;1.38;;;12.80;92.10;;;;;;5076083;28;20114;-66
2021/05/14 05:55:44;;;;;;;3.10;1.30;;;12.90;91.40;;;;;;5079297;28;20422;-67
2021/05/14 05:58:15;;;;;;;4.22;1.50;;;12.70;91.80;;;;;;5086005;28;20056;-67
2021/05/14 06:00:42;;;;;;;1.73;1.10;;;12.60;92.20;;;;;;5081046;28;20086;-67
2021/05/14 06:03:14;;;;;;;3.10;1.45;;;12.60;92.30;;;;;;5079599;28;20102;-68
2021/05/14 06:05:42;;;;;;;2.65;1.48;;;12.70;92.30;;;;;;5075523;28;20052;-68
2021/05/14 06:08:09;;;;;;;2.63;1.33;;;12.80;92.20;;;;;;5079339;28;20052;-67
2021/05/14 06:10:36;;;;;;;2.15;1.08;;;12.90;91.70;;;;;;5074591;28;20052;-67
2021/05/14 06:13:03;;;;;;;3.25;1.20;;;12.90;92.00;;;;;;5077831;28;20049;-67
2021/05/14 06:15:30;;;;;;;2.00;1.20;;;12.80;91.60;;;;;;5082800;28;20048;-66
2021/05/14 06:17:58;;;;;;;2.25;1.10;;;12.70;91.90;;;;;;5076317;28;20076;-68
2021/05/14 06:20:27;;;;;;;1.42;1.33;;;12.40;92.60;;;;;;5080832;28;20090;-67
2021/05/14 06:22:54;;;;;;;3.15;1.42;;;12.60;92.50;;;;;;5078843;28;20051;-68
2021/05/14 06:25:26;;;;;;;3.33;1.85;;;12.80;92.30;;;;;;5084854;28;20048;-68
2021/05/14 06:27:53;;;;;;;2.08;1.23;;;12.60;92.10;;;;;;5084819;28;20047;-66
2021/05/14 06:30:21;;;;;;;4.18;1.35;;;12.60;92.70;;;;;;5078572;28;20415;-67
2021/05/14 06:32:48;;;;;;;2.08;1.33;;;12.50;92.30;;;;;;5075429;28;20089;-67
2021/05/14 06:35:15;;;;;;;3.75;1.00;;;12.50;92.70;;;;;;5086446;28;20089;-67
2021/05/14 06:37:44;;;;;;;2.35;1.25;;;12.50;93.00;;;;;;5080745;28;20072;-67
2021/05/14 06:40:12;;;;;;;3.17;1.17;;;12.60;92.30;;;;;;5094616;28;20486;-67
2021/05/14 06:42:38;;;;;;;1.75;1.13;;;12.80;92.40;;;;;;5084175;28;20090;-67
2021/05/14 06:45:07;;;;;;;1.85;1.30;;;13.00;92.00;;;;;;5072656;28;20472;-67
2021/05/14 06:47:36;;;;;;;4.47;1.20;;;13.10;91.80;;;;;;5081897;28;20547;-68
2021/05/14 06:50:05;;;;;;;1.52;0.95;;;13.20;91.40;;;;;;5081872;28;20044;-68
2021/05/14 06:52:34;;;;;;;2.05;1.27;;;13.00;91.40;;;;;;5074650;28;20129;-66
2021/05/14 06:55:07;;;;;;;2.63;1.27;;;12.80;92.00;;;;;;5077843;28;20376;-67
2021/05/14 06:57:34;;;;;;;2.38;1.20;;;12.70;92.20;;;;;;5080230;28;20048;-66
2021/05/14 07:00:02;;;;;;;1.73;1.10;;;12.80;92.40;;;;;;5083254;28;20052;-66
2021/05/14 07:02:29;;;;;;;4.97;1.10;;;12.60;92.70;;;;;;5081495;28;20196;-66
2021/05/14 07:04:59;;;;;;;2.17;1.40;;;12.40;93.40;;;;;;5076032;28;20044;-68
2021/05/14 07:07:26;;;;;;;3.55;1.60;;;12.60;93.40;;;;;;5080748;28;20080;-65
2021/05/14 07:09:53;;;;;;;2.28;1.23;;;13.00;92.80;;;;;;5081797;28;20048;-67
2021/05/14 07:12:19;;;;;;;2.97;1.10;;;13.40;91.80;;;;;;5083344;28;20076;-67
2021/05/14 07:14:46;;;;;;;1.48;0.80;;;13.50;91.30;;;;;;5078772;28;20044;-68
2021/05/14 07:17:14;;;;;;;1.20;0.88;;;13.70;90.40;;;;;;5078135;28;20052;-67
2021/05/14 07:19:41;;;;;;;1.65;1.00;;;13.60;90.90;;;;;;5074959;28;20040;-67
2021/05/14 07:22:08;;;;;;;1.63;0.80;;;13.90;90.00;;;;;;5079606;28;20089;-67
2021/05/14 07:24:35;;;;;;;0.82;0.75;;;14.00;87.10;;;;;;5073976;28;20130;-66
2021/05/14 07:27:04;;;;;;;1.58;0.88;;;14.20;85.60;;;;;;5082162;28;20044;-67
2021/05/14 07:29:30;;;;;;;1.88;0.98;;;14.00;85.90;;;;;;5080839;28;20485;-68
2021/05/14 07:31:57;;;;;;;1.35;1.00;;;13.50;88.50;;;;;;5073494;28;20048;-68
2021/05/14 07:34:29;;;;;;;2.65;0.90;;;13.60;88.80;;;;;;5080303;28;20541;-68
2021/05/14 07:37:04;;;;;;;3.45;0.63;;;14.00;86.30;;;;;;5080535;28;20040;-67
2021/05/14 07:39:31;;;;;;;1.13;0.77;;;14.00;85.90;;;;;;5075592;28;20079;-67
2021/05/14 07:42:00;;;;;;;2.63;1.13;;;14.10;84.70;;;;;;5086483;28;20122;-67
2021/05/14 07:44:27;;;;;;;6.63;0.88;;;14.10;85.30;;;;;;5084683;28;20282;-67
2021/05/14 07:46:54;;;;;;;1.67;0.85;;;14.00;84.80;;;;;;5085847;28;20082;-68
2021/05/14 07:49:22;;;;;;;0.68;0.63;;;14.10;84.30;;;;;;5085957;28;20049;-68
2021/05/14 07:51:49;;;;;;;1.23;0.63;;;14.10;83.50;;;;;;5079434;28;20453;-68
2021/05/14 07:54:16;;;;;;;2.08;0.70;;;14.70;83.30;;;;;;5080237;28;20073;-67
2021/05/14 07:56:43;;;;;;;1.05;0.80;;;15.40;80.00;;;;;;5088132;28;20072;-66
2021/05/14 07:59:20;;;;;;;2.85;0.75;;;15.10;79.90;;;;;;5089389;28;20048;-69
2021/05/14 08:01:48;;;;;;;6.30;0.90;;;15.10;79.60;;;;;;5079434;28;20797;-67
2021/05/14 08:04:17;;;;;;;0.73;0.70;;;15.30;79.10;;;;;;5088174;28;20052;-66
2021/05/14 08:06:44;;;;;;;1.20;0.90;;;15.40;78.20;;;;;;5086160;28;20087;-66
2021/05/14 08:09:18;;;;;;;1.60;0.80;;;15.50;77.80;;;;;;5083776;28;20132;-67
2021/05/14 08:11:46;;;;;;;2.75;0.70;;;15.70;76.90;;;;;;5084229;28;20101;-67
2021/05/14 08:14:12;;;;;;;1.17;0.77;;;15.90;76.30;;;;;;5074704;28;20110;-68
2021/05/14 08:16:39;;;;;;;3.33;1.00;;;15.70;73.30;;;;;;5079886;28;20098;-67
2021/05/14 08:19:06;;;;;;;1.17;0.63;;;15.70;74.00;;;;;;5083492;28;20071;-67
2021/05/14 08:21:33;;;;;;;3.35;0.63;;;15.40;75.30;;;;;;5084826;28;20090;-67
2021/05/14 08:24:00;;;;;;;3.65;0.70;;;15.70;74.40;;;;;;5085160;28;20036;-67
2021/05/14 08:26:27;;;;;;;2.28;0.80;;;15.60;73.30;;;;;;5086383;28;20079;-67
2021/05/14 08:28:54;;;;;;;3.47;0.90;;;15.60;74.00;;;;;;5082790;28;20135;-67
2021/05/14 08:31:21;;;;;;;3.70;0.80;;;15.40;74.50;;;;;;5084198;28;20552;-68
2021/05/14 08:33:50;;;;;;;2.03;1.00;;;15.60;74.30;;;;;;5081430;28;20044;-67
2021/05/14 08:36:19;;;;;;;1.27;0.90;;;15.60;74.50;;;;;;5082194;28;20094;-68
2021/05/14 08:38:46;;;;;;;2.05;0.80;;;15.60;74.30;;;;;;5083049;28;20500;-68
2021/05/14 08:41:19;;;;;;;2.03;0.65;;;15.50;72.20;;;;;;5079493;28;20047;-67
2021/05/14 08:43:47;;;;;;;1.25;0.80;;;15.70;72.60;;;;;;5084373;28;20123;-67
2021/05/14 08:46:17;;;;;;;2.13;0.88;;;15.60;72.80;;;;;;5081850;28;20052;-67
2021/05/14 08:48:44;;;;;;;3.72;0.75;;;15.80;72.40;;;;;;5082653;28;20613;-67
2021/05/14 08:51:13;;;;;;;3.55;0.85;;;15.40;72.50;;;;;;5084102;28;20056;-67
2021/05/14 08:53:44;;;;;;;1.95;0.60;;;15.70;72.80;;;;;;5077524;28;20144;-67
2021/05/14 08:56:11;;;;;;;3.65;0.63;;;15.80;71.80;;;;;;5081037;27;20468;-67
2021/05/14 08:58:38;;;;;;;0.50;0.50;;;16.10;71.30;;;;;;5085183;28;20048;-67
2021/05/14 09:01:05;;;;;;;4.35;1.08;;;16.10;69.80;;;;;;5096283;28;20040;-68
2021/05/14 09:03:32;;;;;;;3.00;0.63;;;16.10;71.00;;;;;;5084897;28;20044;-67
2021/05/14 09:05:59;;;;;;;1.13;0.70;;;16.20;70.30;;;;;;5083741;28;20056;-66
2021/05/14 09:08:31;;;;;;;2.00;0.70;;;15.90;70.00;;;;;;5086941;28;20044;-67
2021/05/14 09:10:59;;;;;;;2.92;0.85;;;16.10;69.90;;;;;;5082680;28;20049;-68
2021/05/14 09:13:38;;;;;;;4.70;0.80;;;16.10;69.80;;;;;;5090506;28;20040;-68
2021/05/14 09:16:06;;;;;;;1.00;0.82;;;16.60;67.70;;;;;;5078211;28;20102;-66
2021/05/14 09:18:33;;;;;;;2.30;0.77;;;16.00;66.90;;;;;;5084037;28;20339;-65
2021/05/14 09:21:02;;;;;;;2.03;0.60;;;15.90;68.30;;;;;;5081631;28;20048;-66
2021/05/14 09:23:35;;;;;;;3.17;0.67;;;16.00;67.60;;;;;;5081772;28;20692;-68
2021/05/14 09:26:15;;;;;;;1.63;0.50;;;16.30;68.20;;;;;;5079912;28;20040;-65
2021/05/14 09:28:47;;;;;;;3.57;0.70;;;16.60;66.30;;;;;;5076353;28;20080;-65
2021/05/14 09:31:19;;;;;;;3.70;0.50;;;16.30;64.90;;;;;;5083248;28;20048;-67
2021/05/14 09:33:51;;;;;;;1.17;0.50;;;16.00;64.20;;;;;;5085501;28;20052;-66
2021/05/14 09:36:27;;;;;;;3.17;0.75;;;16.20;65.60;;;;;;5078528;28;20056;-66
2021/05/14 09:39:03;;;;;;;0.88;0.60;;;16.60;63.40;;;;;;5099856;28;20075;-70
2021/05/14 09:41:31;;;;;;;1.95;0.47;;;16.70;62.90;;;;;;5081499;28;20094;-68
2021/05/14 09:44:16;;;;;;;1.15;0.60;;;17.00;62.10;;;;;;5080624;28;20040;-68
2021/05/14 09:46:45;;;;;;;1.20;0.68;;;17.40;60.60;;;;;;5075945;28;20067;-66
2021/05/14 09:49:19;;;;;;;1.13;0.70;;;17.60;59.50;;;;;;5082198;28;20040;-66
2021/05/14 09:51:56;;;;;;;2.05;0.77;;;17.40;60.10;;;;;;5087947;28;20056;-66
2021/05/14 09:54:34;;;;;;;2.28;0.50;;;17.40;60.50;;;;;;5082064;28;20055;-66
2021/05/14 09:57:14;;;;;;;1.15;0.55;;;17.30;59.60;;;;;;5083404;28;20093;-66
2021/05/14 09:59:41;;;;;;;;;;;17.40;58.80;;;;;;5084807;28;20078;-66
2021/05/14 10:02:22;;;;;;;1.02;0.60;;;17.50;57.70;;;;;;5081358;28;20579;-66
2021/05/14 10:04:50;;;;;;;2.13;0.68;;;17.40;57.70;;;;;;5078688;28;20134;-66
2021/05/14 10:07:18;;;;;;;2.80;1.15;;;17.60;59.00;;;;;;5085139;28;20052;-65
2021/05/14 10:09:48;;;;;;;1.33;0.93;;;17.90;58.40;;;;;;5087295;28;20101;-66
2021/05/14 10:12:17;;;;;;;3.00;0.75;;;17.90;58.30;;;;;;5086175;28;20400;-70
2021/05/14 10:14:45;;;;;;;5.30;1.98;;;18.10;57.80;;;;;;5085956;28;20048;-68
2021/05/14 10:17:12;;;;;;;3.50;0.77;;;18.50;57.30;;;;;;5086690;28;20170;-70
2021/05/14 10:19:40;;;;;;;1.52;0.70;;;18.40;58.30;;;;;;5083777;28;20708;-68
2021/05/14 10:22:08;;;;;;;4.22;0.80;;;18.00;58.50;;;;;;5080423;28;20060;-68
2021/05/14 10:24:46;;;;;;;6.75;0.80;;;17.70;58.90;;;;;;5086637;28;20135;-70
2021/05/14 10:27:17;;;;;;;6.60;1.92;;;17.20;59.20;;;;;;5078560;28;20748;-68
2021/05/14 10:29:46;;;;;;;0.60;0.55;;;17.20;59.50;;;;;;5075480;28;20248;-68
2021/05/14 10:32:13;;;;;;;0.85;0.60;;;17.30;58.90;;;;;;5083905;28;20083;-70
2021/05/14 10:34:41;;;;;;;3.38;0.47;;;17.30;58.60;;;;;;5086643;28;20536;-69
2021/05/14 10:37:08;;;;;;;10.02;2.72;;;17.40;55.90;;;;;;5084801;28;20057;-69
2021/05/14 10:39:39;;;;;;;1.90;0.70;;;17.50;56.20;;;;;;5083974;28;20078;-68
2021/05/14 10:42:09;;;;;;;1.67;1.05;;;17.60;56.00;;;;;;5083731;28;20482;-69
2021/05/14 10:44:54;;;;;;;2.73;1.47;;;17.60;56.10;;;;;;5079797;28;20837;-69
2021/05/14 10:47:23;;;;;;;7.30;2.35;;;17.40;56.60;;;;;;5083343;28;20048;-69
2021/05/14 10:49:58;;;;;;;8.32;3.70;;;17.10;56.70;;;;;;5083130;28;20047;-70
2021/05/14 10:52:27;;;;;;;3.63;0.85;;;16.60;60.90;;;;;;5081972;28;20487;-70
2021/05/14 10:54:54;;;;;;;10.20;3.55;;;16.40;65.60;;;;;;5081500;28;20166;-67
2021/05/14 10:57:39;;;;;;;1.27;1.00;;;16.60;65.60;;;;;;5082207;28;20159;-71
2021/05/14 11:00:26;;;;;;;3.05;1.20;;;16.70;64.50;;;;;;5082957;28;20075;-71
2021/05/14 11:03:11;;;;;;;1.25;0.93;;;16.70;64.60;;;;;;5077395;28;20121;-71
2021/05/14 11:05:40;;;;;;;0.93;0.52;;;16.40;58.60;;;;;;5080496;28;20836;-73
2021/05/14 11:08:19;;;;;;;0.80;0.32;;;16.20;63.40;;;;;;5076432;28;20080;-72
2021/05/14 11:10:59;;;;;;;1.30;0.52;;;15.90;65.90;;;;;;5074132;28;21266;-71
2021/05/14 11:13:48;;;;;;;0.50;0.40;;;15.80;66.60;;;;;;5077133;28;20146;-71
2021/05/14 11:16:46;;;;;;;0.50;0.40;;;16.00;65.80;;;;;;5084127;28;20048;-71
2021/05/14 11:19:20;;;;;;;8.20;2.97;;;16.00;67.70;;;;;;5083404;28;20055;-70
2021/05/14 11:21:59;;;;;;;1.45;0.98;;;16.10;65.20;;;;;;5081924;28;20142;-72
2021/05/14 11:24:48;;;;;;;4.57;1.70;;;16.50;62.00;;;;;;5082877;28;20058;-71
2021/05/14 11:27:33;;;;;;;1.83;0.60;;;16.50;62.70;;;;;;5080317;28;20048;-70
2021/05/14 11:30:05;;;;;;;3.28;1.60;;;16.60;60.00;;;;;;5086683;28;20136;-71
2021/05/14 11:32:34;;;;;;;1.40;0.50;;;17.00;59.80;;;;;;5082073;28;20167;-74
2021/05/14 11:35:18;;;;;;;0.93;0.65;;;17.30;59.50;;;;;;5078654;28;20052;-71
2021/05/14 11:37:52;;;;;;;0.85;0.38;;;17.70;60.10;;;;;;5080696;28;20048;-71
2021/05/14 11:40:27;;;;;;;4.78;2.05;;;17.50;60.10;;;;;;5081498;28;20098;-70
2021/05/14 11:43:04;;;;;;;5.03;2.65;;;17.70;60.20;;;;;;5081305;28;20148;-70
2021/05/14 11:45:37;;;;;;;2.45;0.88;;;17.90;61.30;;;;;;5083330;28;20135;-70
2021/05/14 11:48:10;;;;;;;1.02;0.63;;;18.30;58.60;;;;;;5085339;28;20713;-70
2021/05/14 11:50:45;;;;;;;3.28;1.80;;;18.80;57.70;;;;;;5082432;28;20060;-70
2021/05/14 11:53:12;;;;;;;1.45;1.00;;;19.20;56.00;;;;;;5079576;28;20160;-71
2021/05/14 11:55:42;;;;;;;0.68;0.40;;;19.40;55.70;;;;;;5086228;28;20044;-71
2021/05/14 11:58:09;;;;;;;2.10;1.02;;;19.20;55.30;;;;;;5085004;28;20141;-72
2021/05/14 12:00:45;;;;;;;1.90;0.75;;;18.80;56.50;;;;;;5084979;28;20052;-71
2021/05/14 12:03:17;;;;;;;6.47;0.90;;;19.40;55.60;;;;;;5084352;28;20048;-71
2021/05/14 12:05:48;;;;;;;1.42;0.55;;;18.90;55.60;;;;;;5084493;28;20165;-72
2021/05/14 12:08:20;;;;;;;0.75;0.40;;;19.10;54.70;;;;;;5083966;28;20056;-72
2021/05/14 12:11:02;;;;;;;1.10;0.70;;;18.80;53.90;;;;;;5085879;28;20513;-71
2021/05/14 12:13:34;;;;;;;0.40;0.30;;;18.90;53.80;;;;;;5083312;28;20147;-73
2021/05/14 12:16:04;;;;;;;4.00;1.88;;;19.20;52.60;;;;;;5088053;28;20044;-73
2021/05/14 12:18:44;;;;;;;4.03;1.50;;;21.40;52.50;;;;;;5085948;28;20056;-73
2021/05/14 12:21:23;;;;;;;1.33;0.77;;;23.90;48.20;;;;;;5097043;28;20067;-73
2021/05/14 12:23:51;;;;;;;0.70;0.32;;;25.70;43.20;;;;;;5087018;28;20077;-73
2021/05/14 12:26:18;;;;;;;1.30;0.50;;;27.20;40.50;;;;;;5087628;28;20052;-71
2021/05/14 12:28:47;;;;;;;3.97;0.80;;;30.80;34.40;;;;;;5088898;27;20052;-71
2021/05/14 12:31:21;;;;;;;0.40;0.30;;;31.60;32.70;;;;;;5089880;28;20112;-71
2021/05/14 12:33:56;;;;;;;2.58;0.70;;;33.60;30.20;;;;;;5091356;28;20051;-71
2021/05/14 12:36:34;;;;;;;1.02;0.30;;;26.10;33.80;;;;;;5092284;28;20109;-72
2021/05/14 12:39:11;;;;;;;2.17;1.02;;;22.70;39.30;;;;;;5088145;28;20485;-71
2021/05/14 12:41:48;;;;;;;0.70;0.70;;;21.00;43.90;;;;;;5086204;28;20076;-70
2021/05/14 12:44:18;;;;;;;0.40;0.40;;;20.10;45.90;;;;;;5089883;28;20133;-72
2021/05/14 12:47:03;;;;;;;3.03;1.15;;;19.60;46.30;;;;;;5088908;28;20079;-72
2021/05/14 12:49:46;;;;;;;1.20;0.65;;;19.70;47.90;;;;;;5091012;28;20044;-72
2021/05/14 12:52:23;;;;;;;0.70;0.60;;;19.20;47.60;;;;;;5093319;28;20047;-72
2021/05/14 12:54:54;;;;;;;1.40;0.50;;;18.80;47.70;;;;;;5089011;28;20802;-71
2021/05/14 12:57:35;;;;;;;1.63;0.70;;;18.60;48.70;;;;;;5091227;28;20052;-71
2021/05/14 13:00:16;;;;;;;0.70;0.50;;;18.50;50.10;;;;;;5093308;28;20544;-72
2021/05/14 13:02:53;;;;;;;1.10;0.40;;;18.60;50.40;;;;;;5084637;28;20133;-72
2021/05/14 13:05:33;;;;;;;0.60;0.50;;;18.50;50.30;;;;;;5089564;28;20048;-71